Time;durP1;ratioP1;P1;durP2;ratioP2;P2;SDS_P1;SDS_P2;PMS_P1;PMS_P2;Temp;Humidity;BMP_temperature;BMP_pressure;BME280_temperature;BME280_humidity;BME280_pressure;Samples;Min_cycle;Max_cycle;Signal;HPM_P1;HPM_P2
2023/11/15 00:00:38;;;;;;;3.73;1.90;;;9.00;99.90;;;;;;4176644;28;20033;-62
2023/11/15 00:02:40;;;;;;;5.27;2.43;;;8.90;99.90;;;;;;4178535;28;20029;-62
2023/11/15 00:04:41;;;;;;;6.50;2.97;;;8.90;99.90;;;;;;4177030;28;20037;-60
2023/11/15 00:06:43;;;;;;;6.63;3.00;;;8.90;99.90;;;;;;4177505;28;20433;-61
2023/11/15 00:08:44;;;;;;;8.43;3.57;;;8.80;99.90;;;;;;4177047;28;20394;-62
2023/11/15 00:10:45;;;;;;;8.13;3.77;;;8.90;99.90;;;;;;4177810;28;20471;-62
2023/11/15 00:12:46;;;;;;;9.07;4.17;;;8.90;99.90;;;;;;4176921;28;20041;-61
2023/11/15 00:14:48;;;;;;;5.97;4.23;;;8.90;99.90;;;;;;4178233;28;20021;-60
2023/11/15 00:16:49;;;;;;;7.80;4.10;;;8.80;99.90;;;;;;4176481;28;20041;-61
2023/11/15 00:18:50;;;;;;;6.90;4.17;;;8.80;99.90;;;;;;4178122;28;20037;-61
2023/11/15 00:20:51;;;;;;;8.87;4.00;;;8.80;99.90;;;;;;4177147;28;20087;-61
2023/11/15 00:22:52;;;;;;;8.77;3.93;;;8.80;99.90;;;;;;4177884;28;20013;-62
2023/11/15 00:24:53;;;;;;;10.10;3.80;;;8.80;99.90;;;;;;4177231;28;20060;-61
2023/11/15 00:26:55;;;;;;;8.87;3.77;;;8.70;99.90;;;;;;4177574;28;20079;-61
2023/11/15 00:28:57;;;;;;;8.13;3.83;;;8.70;99.90;;;;;;4177401;28;20045;-62
2023/11/15 00:30:58;;;;;;;7.40;3.57;;;8.70;99.90;;;;;;4176384;28;20043;-62
2023/11/15 00:32:59;;;;;;;8.63;3.73;;;8.70;99.90;;;;;;4175994;28;20086;-62
2023/11/15 00:35:00;;;;;;;6.10;3.80;;;8.70;99.90;;;;;;4176293;28;20071;-62
2023/11/15 00:37:01;;;;;;;9.87;3.93;;;8.70;99.90;;;;;;4177810;28;20127;-60
2023/11/15 00:39:08;;;;;;;6.37;3.30;;;8.70;99.90;;;;;;4176110;28;20479;-62
2023/11/15 00:41:09;;;;;;;7.63;3.60;;;8.70;99.90;;;;;;4177722;28;20037;-61
2023/11/15 00:43:10;;;;;;;10.00;4.23;;;8.70;99.90;;;;;;4176750;28;20033;-61
2023/11/15 00:45:11;;;;;;;6.23;3.67;;;8.70;99.90;;;;;;4177412;28;20473;-62
2023/11/15 00:47:13;;;;;;;6.17;3.47;;;8.70;99.90;;;;;;4176489;28;20090;-60
2023/11/15 00:49:14;;;;;;;9.90;4.87;;;8.70;99.90;;;;;;4177706;28;20036;-62
2023/11/15 00:51:15;;;;;;;11.07;5.93;;;8.60;99.90;;;;;;4176753;28;20102;-60
2023/11/15 00:53:16;;;;;;;9.20;4.43;;;8.60;99.90;;;;;;4177475;28;20135;-62
2023/11/15 00:55:17;;;;;;;7.87;3.83;;;8.60;99.90;;;;;;4176737;28;20126;-61
2023/11/15 00:57:19;;;;;;;9.67;4.70;;;8.60;99.90;;;;;;4160971;28;20045;-62
2023/11/15 00:59:22;;;;;;;6.50;3.93;;;8.50;99.90;;;;;;4160804;28;20107;-62
2023/11/15 01:01:25;;;;;;;9.23;4.50;;;8.50;99.90;;;;;;4168435;28;20435;-61
2023/11/15 01:03:26;;;;;;;8.47;4.07;;;8.40;99.90;;;;;;4177332;28;20400;-61
2023/11/15 01:05:28;;;;;;;7.87;3.90;;;8.30;99.90;;;;;;4176317;28;20037;-60
2023/11/15 01:07:31;;;;;;;6.63;3.90;;;8.40;99.90;;;;;;4177592;28;20473;-62
2023/11/15 01:09:34;;;;;;;5.97;3.27;;;8.30;99.90;;;;;;4176133;28;20094;-61
2023/11/15 01:11:36;;;;;;;10.67;5.00;;;8.30;99.90;;;;;;4177701;28;20354;-62
2023/11/15 01:13:37;;;;;;;9.63;5.23;;;8.30;99.90;;;;;;4176179;28;20037;-61
2023/11/15 01:15:38;;;;;;;8.90;4.97;;;8.30;99.90;;;;;;4176769;28;20078;-61
2023/11/15 01:17:39;;;;;;;8.63;4.10;;;8.30;99.90;;;;;;4158429;28;20571;-61
2023/11/15 01:19:40;;;;;;;6.00;4.73;;;8.20;99.90;;;;;;4176358;28;20064;-62
2023/11/15 01:21:41;;;;;;;8.37;4.97;;;8.20;99.90;;;;;;4175063;28;20087;-61
2023/11/15 01:23:43;;;;;;;7.20;4.93;;;8.20;99.90;;;;;;4177584;28;20033;-61
2023/11/15 01:25:44;;;;;;;7.77;4.60;;;8.20;99.90;;;;;;4176484;28;20114;-62
2023/11/15 01:27:46;;;;;;;11.50;5.40;;;8.20;99.90;;;;;;4176540;28;20037;-61
2023/11/15 01:29:47;;;;;;;6.07;4.13;;;8.10;99.90;;;;;;4176358;28;20048;-61
2023/11/15 01:31:48;;;;;;;6.00;3.70;;;8.10;99.90;;;;;;4176075;28;20048;-62
2023/11/15 01:33:49;;;;;;;5.33;3.50;;;8.00;99.90;;;;;;4176793;28;20033;-61
2023/11/15 01:35:50;;;;;;;5.23;3.40;;;8.00;99.90;;;;;;4176490;28;20067;-61
2023/11/15 01:37:52;;;;;;;5.87;3.27;;;8.00;99.90;;;;;;4177547;28;20075;-61
2023/11/15 01:39:53;;;;;;;6.30;3.37;;;8.00;99.90;;;;;;4176357;28;20029;-60
2023/11/15 01:41:56;;;;;;;5.27;3.40;;;8.00;99.90;;;;;;4178269;28;20029;-61
2023/11/15 01:43:57;;;;;;;7.27;3.20;;;8.00;99.90;;;;;;4179606;28;20021;-61
2023/11/15 01:45:58;;;;;;;5.33;2.80;;;8.10;99.90;;;;;;4180202;28;20439;-61
2023/11/15 01:48:00;;;;;;;5.37;3.20;;;8.00;99.90;;;;;;4179572;28;20033;-62
2023/11/15 01:50:05;;;;;;;8.10;3.50;;;8.00;99.90;;;;;;4180518;28;20025;-61
2023/11/15 01:52:06;;;;;;;5.10;2.60;;;8.00;99.90;;;;;;4178642;28;20045;-62
2023/11/15 01:54:07;;;;;;;4.70;2.00;;;8.00;99.90;;;;;;4180133;28;20083;-61
2023/11/15 01:56:09;;;;;;;5.57;2.03;;;8.00;99.90;;;;;;4178985;28;20108;-61
2023/11/15 01:58:11;;;;;;;7.03;2.70;;;8.00;99.90;;;;;;4180778;28;20036;-61
2023/11/15 02:00:14;;;;;;;8.07;3.00;;;8.00;99.90;;;;;;4179548;28;20033;-61
2023/11/15 02:02:15;;;;;;;5.53;2.93;;;8.00;99.90;;;;;;4179889;28;20033;-61
2023/11/15 02:04:16;;;;;;;6.37;3.03;;;8.00;99.90;;;;;;4179552;28;20381;-62
2023/11/15 02:06:18;;;;;;;5.67;2.83;;;8.10;99.90;;;;;;4178566;28;20037;-61
2023/11/15 02:08:19;;;;;;;9.10;5.03;;;8.00;99.90;;;;;;4180010;28;20474;-59
2023/11/15 02:10:21;;;;;;;13.63;6.63;;;8.00;99.90;;;;;;4179134;28;20033;-60
2023/11/15 02:12:22;;;;;;;15.13;9.63;;;8.00;99.90;;;;;;4180191;28;20094;-61
2023/11/15 02:14:23;;;;;;;13.30;7.70;;;7.90;99.90;;;;;;4178786;28;20028;-59
2023/11/15 02:16:25;;;;;;;11.47;6.77;;;7.90;99.90;;;;;;4180149;28;20094;-60
2023/11/15 02:18:26;;;;;;;13.03;7.43;;;7.90;99.90;;;;;;4178792;28;20036;-60
2023/11/15 02:20:28;;;;;;;12.30;7.23;;;7.90;99.90;;;;;;4180178;28;20029;-61
2023/11/15 02:22:30;;;;;;;12.43;6.80;;;7.80;99.90;;;;;;4178974;28;20025;-61
2023/11/15 02:24:31;;;;;;;22.57;13.50;;;7.80;99.90;;;;;;4179933;28;20040;-60
2023/11/15 02:26:32;;;;;;;21.30;12.07;;;7.80;99.90;;;;;;4177407;28;20095;-61
2023/11/15 02:28:34;;;;;;;24.13;14.10;;;7.80;99.90;;;;;;4180387;28;20025;-61
2023/11/15 02:30:35;;;;;;;18.90;10.60;;;7.70;99.90;;;;;;4179127;28;20021;-62
2023/11/15 02:32:41;;;;;;;13.47;9.00;;;7.70;99.90;;;;;;4165729;28;20041;-61
2023/11/15 02:34:42;;;;;;;15.20;8.43;;;7.70;99.90;;;;;;4178916;28;20481;-62
2023/11/15 02:36:43;;;;;;;11.57;7.53;;;7.70;99.90;;;;;;4178929;28;20166;-62
2023/11/15 02:38:45;;;;;;;11.60;8.17;;;7.70;99.90;;;;;;4178928;28;20115;-61
2023/11/15 02:40:46;;;;;;;14.37;8.43;;;7.70;99.90;;;;;;4160867;28;20095;-62
2023/11/15 02:42:47;;;;;;;11.80;7.23;;;7.70;99.90;;;;;;4178176;28;20029;-62
2023/11/15 02:44:48;;;;;;;7.93;4.50;;;7.70;99.90;;;;;;4177970;28;20461;-61
2023/11/15 02:46:49;;;;;;;8.57;4.93;;;7.80;99.90;;;;;;4179768;28;20090;-61
2023/11/15 02:48:50;;;;;;;6.27;4.00;;;7.80;99.90;;;;;;4177499;28;20485;-61
2023/11/15 02:50:52;;;;;;;6.00;3.23;;;7.80;99.90;;;;;;4179798;28;20052;-58
2023/11/15 02:52:53;;;;;;;4.73;3.43;;;7.80;99.90;;;;;;4178270;28;20338;-62
2023/11/15 02:54:55;;;;;;;4.73;3.33;;;7.80;99.90;;;;;;4179699;28;20079;-61
2023/11/15 02:56:56;;;;;;;6.93;3.30;;;7.80;99.90;;;;;;4177851;28;20110;-62
2023/11/15 02:58:58;;;;;;;6.30;3.87;;;7.80;99.90;;;;;;4180120;28;20837;-63
2023/11/15 03:00:59;;;;;;;6.13;3.40;;;7.80;99.90;;;;;;4178287;28;20021;-60
2023/11/15 03:03:00;;;;;;;6.33;3.67;;;7.80;99.90;;;;;;4179237;28;20090;-61
2023/11/15 03:05:01;;;;;;;5.17;3.20;;;7.80;99.90;;;;;;4177989;28;20017;-61
2023/11/15 03:07:02;;;;;;;5.37;3.33;;;7.90;99.90;;;;;;4177515;28;20060;-61
2023/11/15 03:09:03;;;;;;;5.10;3.00;;;7.90;99.90;;;;;;4178656;28;20049;-58
2023/11/15 03:11:05;;;;;;;4.73;3.20;;;7.90;99.90;;;;;;4177718;28;20029;-62
2023/11/15 03:13:08;;;;;;;4.23;3.30;;;7.90;99.90;;;;;;4178109;28;20107;-58
2023/11/15 03:15:09;;;;;;;7.67;2.60;;;7.80;99.90;;;;;;4177843;28;20458;-60
2023/11/15 03:17:16;;;;;;;2.27;1.70;;;7.80;99.90;;;;;;4179105;28;20063;-60
2023/11/15 03:19:17;;;;;;;1.80;1.33;;;7.80;99.90;;;;;;4177540;28;20104;-62
2023/11/15 03:21:18;;;;;;;2.27;1.40;;;7.80;99.90;;;;;;4178985;28;20132;-62
2023/11/15 03:23:19;;;;;;;1.97;1.40;;;7.80;99.90;;;;;;4177214;28;20041;-61
2023/11/15 03:25:21;;;;;;;2.17;1.47;;;7.70;99.90;;;;;;4178150;28;20049;-62
2023/11/15 03:27:22;;;;;;;4.17;1.67;;;7.70;99.90;;;;;;4175700;28;20143;-61
2023/11/15 03:29:23;;;;;;;1.90;1.40;;;7.70;99.90;;;;;;4178437;28;20079;-61
2023/11/15 03:31:24;;;;;;;3.87;1.90;;;7.70;99.90;;;;;;4176658;28;20036;-62
2023/11/15 03:33:26;;;;;;;1.47;1.10;;;7.70;99.90;;;;;;4177971;28;20466;-60
2023/11/15 03:35:27;;;;;;;1.97;1.60;;;7.70;99.90;;;;;;4177378;28;20436;-60
2023/11/15 03:37:28;;;;;;;2.77;1.70;;;7.80;99.90;;;;;;4176604;28;20052;-61
2023/11/15 03:39:31;;;;;;;2.43;1.50;;;7.80;99.90;;;;;;4176084;28;20462;-59
2023/11/15 03:41:32;;;;;;;2.17;1.17;;;7.80;99.90;;;;;;4175391;28;20041;-60
2023/11/15 03:43:33;;;;;;;3.20;1.67;;;7.80;99.90;;;;;;4177853;28;20041;-61
2023/11/15 03:45:34;;;;;;;1.83;1.37;;;7.80;99.90;;;;;;4175887;28;20457;-60
2023/11/15 03:47:36;;;;;;;2.60;1.60;;;7.70;99.90;;;;;;4178068;28;20473;-59
2023/11/15 03:49:37;;;;;;;3.93;1.50;;;7.70;99.90;;;;;;4176981;28;20071;-60
2023/11/15 03:51:38;;;;;;;2.63;1.40;;;7.70;99.90;;;;;;4177742;28;20025;-60
2023/11/15 03:53:39;;;;;;;4.77;0.93;;;7.70;99.90;;;;;;4177152;28;20517;-60
2023/11/15 03:55:41;;;;;;;3.23;0.67;;;7.70;99.90;;;;;;4178106;28;20078;-61
2023/11/15 03:57:42;;;;;;;0.63;0.50;;;7.70;99.90;;;;;;4176201;28;20420;-61
2023/11/15 03:59:44;;;;;;;2.50;1.10;;;7.60;99.90;;;;;;4178755;28;20432;-60
2023/11/15 04:01:48;;;;;;;7.23;0.73;;;7.60;99.90;;;;;;4177389;28;20086;-61
2023/11/15 04:03:49;;;;;;;0.97;0.67;;;7.60;99.90;;;;;;4178351;28;20447;-64
2023/11/15 04:05:50;;;;;;;2.20;0.70;;;7.60;99.90;;;;;;4176727;28;20107;-61
2023/11/15 04:07:51;;;;;;;1.67;0.67;;;7.50;99.90;;;;;;4176976;28;20037;-62
2023/11/15 04:09:52;;;;;;;1.43;0.60;;;7.50;99.90;;;;;;4177015;28;20041;-61
2023/11/15 04:11:54;;;;;;;2.97;0.63;;;7.60;99.90;;;;;;4176212;28;20110;-62
2023/11/15 04:13:55;;;;;;;2.47;0.70;;;7.60;99.90;;;;;;4178018;28;20056;-61
2023/11/15 04:15:56;;;;;;;2.63;0.60;;;7.60;99.90;;;;;;4177317;28;20105;-61
2023/11/15 04:17:57;;;;;;;6.07;1.20;;;7.50;99.90;;;;;;4177266;28;20122;-61
2023/11/15 04:19:58;;;;;;;4.90;1.93;;;7.50;99.90;;;;;;4176661;28;20114;-62
2023/11/15 04:22:00;;;;;;;4.37;2.03;;;7.50;99.90;;;;;;4177392;28;20044;-62
2023/11/15 04:24:01;;;;;;;4.17;2.37;;;7.50;99.90;;;;;;4159235;28;20060;-63
2023/11/15 04:26:02;;;;;;;3.53;2.37;;;7.40;99.90;;;;;;4177827;28;20543;-63
2023/11/15 04:28:04;;;;;;;4.97;2.57;;;7.40;99.90;;;;;;4176075;28;20037;-63
2023/11/15 04:30:06;;;;;;;5.67;2.93;;;7.40;99.90;;;;;;4178346;28;20103;-62
2023/11/15 04:32:08;;;;;;;7.53;2.80;;;7.40;99.90;;;;;;4176059;28;20459;-63
2023/11/15 04:34:10;;;;;;;4.37;2.43;;;7.50;99.90;;;;;;4176618;28;20126;-62
2023/11/15 04:36:11;;;;;;;5.63;2.73;;;7.50;99.90;;;;;;4176228;28;20086;-63
2023/11/15 04:38:12;;;;;;;5.37;2.57;;;7.50;99.90;;;;;;4176479;28;20419;-63
2023/11/15 04:40:13;;;;;;;3.97;1.93;;;7.50;99.90;;;;;;4176872;28;20087;-62
2023/11/15 04:42:17;;;;;;;4.67;2.50;;;7.50;99.90;;;;;;4177125;28;20033;-61
2023/11/15 04:44:20;;;;;;;3.00;1.87;;;7.50;99.90;;;;;;4176604;28;20110;-62
2023/11/15 04:46:21;;;;;;;3.87;2.10;;;7.50;99.90;;;;;;4176716;28;20591;-62
2023/11/15 04:48:22;;;;;;;28.83;17.27;;;7.50;99.90;;;;;;4177754;28;20461;-62
2023/11/15 04:50:23;;;;;;;4.07;2.40;;;7.50;99.90;;;;;;4176245;28;20114;-62
2023/11/15 04:52:25;;;;;;;5.07;2.37;;;7.50;99.90;;;;;;4177654;28;20550;-61
2023/11/15 04:54:26;;;;;;;3.87;2.40;;;7.50;99.90;;;;;;4157885;28;20041;-61
2023/11/15 04:56:27;;;;;;;2.90;2.00;;;7.50;99.90;;;;;;4176367;28;20555;-60
2023/11/15 04:58:29;;;;;;;3.40;1.77;;;7.50;99.90;;;;;;4177179;28;20075;-62
2023/11/15 05:00:30;;;;;;;3.27;2.33;;;7.40;99.90;;;;;;4158359;28;20033;-60
2023/11/15 05:02:31;;;;;;;5.27;2.97;;;7.40;99.90;;;;;;4174999;28;20087;-62
2023/11/15 05:04:33;;;;;;;3.90;2.90;;;7.40;99.90;;;;;;4176432;28;20373;-62
2023/11/15 05:06:34;;;;;;;3.87;2.63;;;7.40;99.90;;;;;;4168163;28;20136;-60
2023/11/15 05:08:35;;;;;;;3.47;2.20;;;7.40;99.90;;;;;;4177033;28;20338;-61
2023/11/15 05:10:36;;;;;;;2.30;2.10;;;7.40;99.90;;;;;;4175311;28;20567;-60
2023/11/15 05:12:37;;;;;;;4.83;2.10;;;7.40;99.90;;;;;;4176721;28;20032;-61
2023/11/15 05:14:39;;;;;;;3.50;2.80;;;7.40;99.90;;;;;;4175787;28;20013;-62
2023/11/15 05:16:40;;;;;;;5.17;3.20;;;7.40;99.90;;;;;;4175467;28;20086;-60
2023/11/15 05:18:41;;;;;;;3.00;2.70;;;7.40;99.90;;;;;;4176080;28;20059;-60
2023/11/15 05:20:43;;;;;;;2.30;2.00;;;7.40;99.90;;;;;;4175539;28;20033;-60
2023/11/15 05:22:44;;;;;;;3.70;1.50;;;7.40;99.90;;;;;;4176947;28;20029;-61
2023/11/15 05:24:46;;;;;;;3.27;1.87;;;7.40;99.90;;;;;;4175680;28;20036;-60
2023/11/15 05:26:47;;;;;;;2.80;1.73;;;7.40;99.90;;;;;;4170082;28;20046;-60
2023/11/15 05:28:49;;;;;;;4.87;2.10;;;7.40;99.90;;;;;;4185866;28;20045;-61
2023/11/15 05:30:50;;;;;;;4.23;2.10;;;7.40;99.90;;;;;;4178986;28;20103;-60
2023/11/15 05:32:51;;;;;;;2.83;2.00;;;7.30;99.90;;;;;;4174906;28;20374;-61
2023/11/15 05:34:52;;;;;;;3.20;1.80;;;7.30;99.90;;;;;;4176681;28;20041;-60
2023/11/15 05:36:53;;;;;;;3.07;2.20;;;7.30;99.90;;;;;;4176227;28;20041;-60
2023/11/15 05:38:54;;;;;;;2.23;2.03;;;7.30;99.90;;;;;;4176445;28;20056;-61
2023/11/15 05:40:57;;;;;;;2.77;2.10;;;7.30;99.90;;;;;;4175984;28;20037;-61
2023/11/15 05:42:59;;;;;;;2.33;2.00;;;7.30;99.90;;;;;;4174734;28;20041;-61
2023/11/15 05:45:00;;;;;;;2.70;2.10;;;7.40;99.90;;;;;;4176057;28;20067;-61
2023/11/15 05:47:02;;;;;;;3.27;2.07;;;7.40;99.90;;;;;;4176296;28;20485;-60
2023/11/15 05:49:03;;;;;;;3.53;2.53;;;7.40;99.90;;;;;;4176479;28;20444;-61
2023/11/15 05:51:06;;;;;;;4.53;2.10;;;7.40;99.90;;;;;;4176222;28;20029;-60
2023/11/15 05:53:09;;;;;;;4.13;2.50;;;7.40;99.90;;;;;;4177080;28;20033;-60
2023/11/15 05:55:13;;;;;;;5.33;2.40;;;7.40;99.90;;;;;;4174834;28;20037;-61
2023/11/15 05:57:14;;;;;;;5.97;2.87;;;7.50;99.90;;;;;;4171140;28;20141;-61
2023/11/15 05:59:15;;;;;;;6.80;4.17;;;7.50;99.90;;;;;;4183276;28;20111;-61
2023/11/15 06:01:16;;;;;;;11.07;6.27;;;7.50;99.90;;;;;;4175901;28;20071;-61
2023/11/15 06:03:18;;;;;;;23.83;13.80;;;7.50;99.90;;;;;;4174970;28;20067;-62
2023/11/15 06:05:19;;;;;;;5.67;3.50;;;7.50;99.90;;;;;;4175027;28;20051;-61
2023/11/15 06:07:20;;;;;;;4.87;3.37;;;7.50;99.90;;;;;;4174052;28;20059;-62
2023/11/15 06:09:22;;;;;;;4.83;3.30;;;7.40;99.90;;;;;;4175621;28;20419;-57
2023/11/15 06:11:23;;;;;;;5.17;3.33;;;7.40;99.90;;;;;;4175071;28;20051;-61
2023/11/15 06:13:24;;;;;;;6.17;3.97;;;7.40;99.90;;;;;;4175970;28;20033;-60
2023/11/15 06:15:26;;;;;;;5.80;3.63;;;7.40;99.90;;;;;;4174323;28;20144;-59
2023/11/15 06:17:29;;;;;;;5.57;3.70;;;7.40;99.90;;;;;;4175624;28;20099;-60
2023/11/15 06:19:31;;;;;;;4.57;3.07;;;7.30;99.90;;;;;;4174498;28;20435;-61
2023/11/15 06:21:33;;;;;;;4.50;3.03;;;7.30;99.90;;;;;;4175585;28;20025;-61
2023/11/15 06:23:35;;;;;;;18.83;15.03;;;7.30;99.90;;;;;;4174768;28;20049;-59
2023/11/15 06:25:36;;;;;;;6.83;5.23;;;7.30;99.90;;;;;;4174916;28;20037;-58
2023/11/15 06:27:38;;;;;;;6.20;4.87;;;7.30;99.90;;;;;;4176616;28;20423;-60
2023/11/15 06:29:39;;;;;;;7.43;4.70;;;7.30;99.90;;;;;;4178950;28;20021;-62
2023/11/15 06:31:40;;;;;;;7.83;3.97;;;7.20;99.90;;;;;;4177036;28;20037;-58
2023/11/15 06:33:42;;;;;;;5.07;3.77;;;7.20;99.90;;;;;;4178097;28;20497;-60
2023/11/15 06:35:44;;;;;;;3.50;2.70;;;7.30;99.90;;;;;;4179629;28;20103;-59
2023/11/15 06:37:48;;;;;;;2.83;2.47;;;7.20;99.90;;;;;;4178437;28;20040;-60
2023/11/15 06:39:49;;;;;;;2.40;1.80;;;7.20;99.90;;;;;;4179746;28;20085;-61
2023/11/15 06:41:50;;;;;;;3.40;1.70;;;7.20;99.90;;;;;;4178198;28;20028;-61
2023/11/15 06:43:52;;;;;;;2.83;1.93;;;7.20;99.90;;;;;;4179453;28;20099;-62
2023/11/15 06:45:55;;;;;;;3.20;1.97;;;7.20;99.90;;;;;;4178472;28;20025;-62
2023/11/15 06:47:56;;;;;;;2.60;1.90;;;7.20;99.90;;;;;;4178768;28;20025;-61
2023/11/15 06:49:58;;;;;;;1.93;1.40;;;7.20;99.90;;;;;;4178283;28;20053;-62
2023/11/15 06:51:59;;;;;;;4.63;2.27;;;7.20;99.90;;;;;;4178655;28;20036;-61
2023/11/15 06:54:00;;;;;;;5.10;2.20;;;7.30;99.90;;;;;;4178962;28;20032;-61
2023/11/15 06:56:01;;;;;;;3.43;2.03;;;7.30;99.90;;;;;;4178360;28;20024;-60
2023/11/15 06:58:02;;;;;;;3.13;2.23;;;7.40;99.90;;;;;;4179392;28;20489;-62
2023/11/15 07:00:07;;;;;;;4.67;2.87;;;7.40;99.90;;;;;;4178711;28;20087;-61
2023/11/15 07:02:08;;;;;;;4.27;3.10;;;7.50;99.90;;;;;;4179294;28;20104;-61
2023/11/15 07:04:10;;;;;;;3.43;2.33;;;7.50;99.90;;;;;;4176767;28;20037;-61
2023/11/15 07:06:13;;;;;;;3.43;1.93;;;7.50;99.90;;;;;;4179224;28;20382;-60
2023/11/15 07:08:16;;;;;;;3.70;2.50;;;7.50;99.90;;;;;;4178057;28;20114;-62
2023/11/15 07:10:17;;;;;;;1.77;1.67;;;7.50;99.90;;;;;;4179044;28;20053;-62
2023/11/15 07:12:18;;;;;;;1.83;1.50;;;7.50;99.90;;;;;;4177733;28;20485;-63
2023/11/15 07:14:20;;;;;;;4.33;2.03;;;7.50;99.90;;;;;;4179160;28;20099;-62
2023/11/15 07:16:21;;;;;;;8.80;3.90;;;7.50;99.90;;;;;;4176451;28;20021;-62
2023/11/15 07:18:22;;;;;;;3.40;3.00;;;7.50;99.90;;;;;;4178499;28;20033;-63
2023/11/15 07:20:23;;;;;;;5.03;3.77;;;7.60;99.90;;;;;;4178083;28;20025;-62
2023/11/15 07:22:24;;;;;;;6.77;4.40;;;7.60;99.90;;;;;;4178323;28;20099;-62
2023/11/15 07:24:27;;;;;;;11.17;6.30;;;7.60;99.90;;;;;;4178309;28;20057;-62
2023/11/15 07:26:35;;;;;;;17.30;9.03;;;7.60;99.90;;;;;;4178036;28;20029;-62
2023/11/15 07:28:41;;;;;;;14.97;8.53;;;7.60;99.90;;;;;;4178811;28;20076;-63
2023/11/15 07:30:43;;;;;;;14.07;9.33;;;7.60;99.90;;;;;;4177636;28;20091;-61
2023/11/15 07:32:54;;;;;;;18.57;8.20;;;7.60;99.90;;;;;;4178783;28;20444;-63
2023/11/15 07:34:55;;;;;;;28.50;9.87;;;7.60;99.90;;;;;;4177524;28;20056;-63
2023/11/15 07:36:57;;;;;;;16.23;8.27;;;7.60;99.90;;;;;;4178816;28;20084;-63
2023/11/15 07:38:59;;;;;;;17.97;8.07;;;7.60;99.90;;;;;;4176658;28;20049;-63
2023/11/15 07:41:01;;;;;;;17.20;8.97;;;7.60;99.90;;;;;;4177726;28;20087;-60
2023/11/15 07:43:05;;;;;;;15.53;9.40;;;7.60;99.90;;;;;;4176963;28;20044;-62
2023/11/15 07:45:08;;;;;;;17.77;9.10;;;7.60;99.90;;;;;;4178360;28;20119;-61
2023/11/15 07:47:10;;;;;;;15.40;9.70;;;7.60;99.90;;;;;;4177388;28;20086;-62
2023/11/15 07:49:18;;;;;;;22.23;9.20;;;7.60;99.90;;;;;;4178134;28;20033;-61
2023/11/15 07:51:19;;;;;;;16.30;9.33;;;7.70;99.90;;;;;;4175546;28;20083;-61
2023/11/15 07:53:21;;;;;;;20.27;9.50;;;7.70;99.90;;;;;;4178359;28;20135;-62
2023/11/15 07:55:22;;;;;;;13.40;8.57;;;7.70;99.90;;;;;;4177059;28;20084;-62
2023/11/15 07:57:24;;;;;;;13.70;7.87;;;7.80;99.90;;;;;;4177995;28;20451;-59
2023/11/15 07:59:26;;;;;;;14.73;8.53;;;7.90;99.90;;;;;;4178059;28;20737;-61
2023/11/15 08:01:27;;;;;;;20.30;8.27;;;7.90;99.90;;;;;;4177648;28;20037;-63
2023/11/15 08:03:28;;;;;;;21.73;8.30;;;7.90;99.90;;;;;;4177633;28;20476;-61
2023/11/15 08:05:29;;;;;;;11.80;7.33;;;8.10;99.90;;;;;;4177159;28;20044;-62
2023/11/15 08:07:33;;;;;;;14.13;8.40;;;8.10;99.90;;;;;;4177985;28;20090;-63
2023/11/15 08:09:34;;;;;;;13.53;7.73;;;8.20;99.90;;;;;;4176775;28;20025;-61
2023/11/15 08:11:35;;;;;;;12.33;8.10;;;8.20;99.90;;;;;;4178041;28;20095;-63
2023/11/15 08:13:36;;;;;;;13.90;8.30;;;8.30;99.90;;;;;;4176874;28;20106;-60
2023/11/15 08:15:39;;;;;;;13.63;8.40;;;8.40;99.90;;;;;;4178364;28;20441;-63
2023/11/15 08:17:46;;;;;;;10.33;7.20;;;8.40;99.90;;;;;;4176829;28;20053;-63
2023/11/15 08:19:48;;;;;;;10.90;7.03;;;8.40;99.90;;;;;;4176200;28;20135;-62
2023/11/15 08:21:50;;;;;;;8.20;6.53;;;8.50;99.90;;;;;;4176827;28;20098;-61
2023/11/15 08:23:51;;;;;;;9.17;5.70;;;8.50;99.90;;;;;;4177820;28;20067;-62
2023/11/15 08:25:52;;;;;;;8.70;5.90;;;8.60;99.90;;;;;;4176741;28;20041;-62
2023/11/15 08:27:53;;;;;;;8.33;5.40;;;8.60;99.90;;;;;;4177842;28;20404;-62
2023/11/15 08:29:54;;;;;;;11.47;5.93;;;8.70;99.90;;;;;;4176880;28;20091;-61
2023/11/15 08:31:57;;;;;;;10.27;6.80;;;8.80;99.90;;;;;;4177707;28;20036;-62
2023/11/15 08:33:58;;;;;;;13.63;8.90;;;8.80;99.90;;;;;;4176932;28;20013;-62
2023/11/15 08:36:00;;;;;;;15.37;8.37;;;8.80;99.90;;;;;;4177297;28;20413;-64
2023/11/15 08:38:01;;;;;;;12.43;8.23;;;8.70;99.90;;;;;;4177252;28;20045;-60
2023/11/15 08:40:02;;;;;;;19.27;7.87;;;8.70;99.90;;;;;;4176770;28;20182;-62
2023/11/15 08:42:06;;;;;;;13.03;7.67;;;8.70;99.90;;;;;;4177047;28;20071;-61
2023/11/15 08:44:10;;;;;;;8.83;6.23;;;8.70;99.90;;;;;;4174220;28;20041;-61
2023/11/15 08:46:11;;;;;;;8.23;5.30;;;8.70;99.90;;;;;;4177487;28;20078;-61
2023/11/15 08:48:13;;;;;;;9.83;6.47;;;8.70;99.90;;;;;;4176526;28;20126;-60
2023/11/15 08:50:14;;;;;;;11.23;6.53;;;8.80;99.90;;;;;;4176862;28;20037;-60
2023/11/15 08:52:18;;;;;;;10.77;7.03;;;8.80;99.90;;;;;;4176156;28;20029;-59
2023/11/15 08:54:20;;;;;;;14.47;7.27;;;8.90;99.90;;;;;;4177353;28;20037;-60
2023/11/15 08:56:21;;;;;;;10.07;6.70;;;9.00;99.90;;;;;;4176330;28;21704;-61
2023/11/15 08:58:27;;;;;;;18.50;7.83;;;9.10;99.90;;;;;;4177335;28;20041;-61
2023/11/15 09:00:31;;;;;;;13.87;10.40;;;9.30;99.90;;;;;;4176426;28;20041;-62
2023/11/15 09:02:32;;;;;;;16.70;11.77;;;9.50;99.90;;;;;;4177346;28;20017;-61
2023/11/15 09:04:35;;;;;;;13.37;8.83;;;9.60;99.90;;;;;;4176157;28;20036;-61
2023/11/15 09:06:37;;;;;;;10.30;8.43;;;9.80;99.90;;;;;;4177148;28;20048;-62
2023/11/15 09:08:38;;;;;;;9.83;7.03;;;9.90;99.90;;;;;;4176549;28;20350;-58
2023/11/15 09:10:40;;;;;;;12.73;6.90;;;10.00;99.90;;;;;;4176897;28;20128;-62
2023/11/15 09:12:44;;;;;;;13.30;7.47;;;10.00;99.90;;;;;;4176594;28;20045;-63
2023/11/15 09:14:48;;;;;;;9.57;6.70;;;10.00;99.90;;;;;;4176248;28;20086;-63
2023/11/15 09:16:50;;;;;;;10.83;6.73;;;10.00;99.90;;;;;;4176893;28;20025;-63
2023/11/15 09:18:52;;;;;;;18.57;10.40;;;10.00;99.90;;;;;;4175427;28;20098;-60
2023/11/15 09:20:53;;;;;;;14.47;9.50;;;10.20;99.90;;;;;;4177152;28;20449;-61
2023/11/15 09:22:55;;;;;;;16.80;9.97;;;10.50;99.90;;;;;;4175774;28;20098;-60
2023/11/15 09:24:56;;;;;;;13.90;9.97;;;10.70;99.90;;;;;;4177003;28;20497;-63
2023/11/15 09:26:57;;;;;;;12.83;8.97;;;11.10;99.90;;;;;;4175532;28;20106;-60
2023/11/15 09:28:58;;;;;;;11.83;8.23;;;11.30;99.90;;;;;;4177213;28;20629;-63
2023/11/15 09:31:00;;;;;;;15.73;7.33;;;11.20;99.90;;;;;;4175990;28;20045;-61
2023/11/15 09:33:05;;;;;;;8.90;6.70;;;11.20;99.90;;;;;;4177176;28;20450;-63
2023/11/15 09:35:10;;;;;;;10.03;6.17;;;11.10;99.90;;;;;;4175711;28;20025;-62
2023/11/15 09:37:12;;;;;;;8.97;6.40;;;10.90;99.90;;;;;;4177059;28;20078;-62
2023/11/15 09:39:16;;;;;;;11.07;8.17;;;10.80;99.90;;;;;;4175737;28;20090;-63
2023/11/15 09:41:19;;;;;;;13.27;8.23;;;10.70;99.90;;;;;;4176552;28;20029;-63
2023/11/15 09:43:20;;;;;;;13.10;7.67;;;10.70;99.90;;;;;;4175890;28;20017;-62
2023/11/15 09:45:26;;;;;;;9.60;7.40;;;10.60;99.90;;;;;;4176516;28;20033;-63
2023/11/15 09:47:27;;;;;;;9.00;6.67;;;10.60;99.90;;;;;;4176128;28;20075;-62
2023/11/15 09:49:29;;;;;;;11.90;7.30;;;10.60;99.90;;;;;;4176028;28;20151;-62
2023/11/15 09:51:35;;;;;;;14.20;6.73;;;10.60;99.90;;;;;;4176621;28;20443;-63
2023/11/15 09:53:38;;;;;;;11.47;6.60;;;10.50;99.90;;;;;;4175787;28;20522;-60
2023/11/15 09:55:40;;;;;;;11.23;6.77;;;10.40;99.90;;;;;;4176805;28;20094;-61
2023/11/15 09:57:41;;;;;;;9.07;6.53;;;10.40;99.90;;;;;;4175414;28;20021;-60
2023/11/15 09:59:45;;;;;;;9.83;6.03;;;10.40;99.90;;;;;;4176815;28;20037;-61
2023/11/15 10:01:48;;;;;;;9.20;6.23;;;10.40;99.90;;;;;;4175300;28;20055;-62
2023/11/15 10:03:50;;;;;;;6.70;5.53;;;10.40;99.90;;;;;;4178495;28;20079;-60
2023/11/15 10:05:59;;;;;;;9.77;5.83;;;10.50;99.90;;;;;;4178838;28;20037;-61
2023/11/15 10:08:15;;;;;;;31.93;19.60;;;10.70;99.90;;;;;;4179951;28;20025;-60
2023/11/15 10:10:20;;;;;;;11.23;7.83;;;10.90;99.90;;;;;;4176861;28;20532;-60
2023/11/15 10:12:24;;;;;;;8.37;6.13;;;10.90;99.90;;;;;;4179839;28;20086;-62
2023/11/15 10:14:25;;;;;;;8.10;5.80;;;11.00;99.90;;;;;;4177079;28;20512;-61
2023/11/15 10:16:30;;;;;;;10.77;7.20;;;11.20;99.90;;;;;;4179927;28;20103;-63
2023/11/15 10:18:34;;;;;;;6.10;4.63;;;11.30;99.90;;;;;;4178378;28;20037;-60
2023/11/15 10:20:35;;;;;;;10.27;6.97;;;11.40;99.90;;;;;;4179684;28;20099;-61
2023/11/15 10:22:46;;;;;;;9.40;8.03;;;11.60;99.90;;;;;;4178360;28;20033;-63
2023/11/15 10:25:05;;;;;;;12.23;8.97;;;11.70;99.90;;;;;;4179241;28;20052;-60
2023/11/15 10:27:14;;;;;;;11.33;9.50;;;11.70;99.90;;;;;;4178423;28;20113;-62
2023/11/15 10:29:15;;;;;;;9.60;6.93;;;11.80;99.90;;;;;;4179682;28;20759;-62
2023/11/15 10:31:18;;;;;;;9.07;6.90;;;12.00;99.90;;;;;;4178287;28;20036;-61
2023/11/15 10:33:20;;;;;;;9.50;7.67;;;12.10;99.90;;;;;;4177338;28;20067;-61
2023/11/15 10:35:28;;;;;;;11.37;9.70;;;12.20;99.90;;;;;;4178125;28;20086;-61
2023/11/15 10:37:31;;;;;;;5.90;3.90;;;12.30;99.90;;;;;;4179055;28;20029;-61
2023/11/15 10:39:40;;;;;;;5.73;4.00;;;12.40;99.90;;;;;;4178545;28;20090;-62